Time;durP1;ratioP1;P1;durP2;ratioP2;P2;SDS_P1;SDS_P2;PMS_P1;PMS_P2;Temp;Humidity;BMP_temperature;BMP_pressure;BME280_temperature;BME280_humidity;BME280_pressure;Samples;Min_cycle;Max_cycle;Signal;HPM_P1;HPM_P2
2021/12/21 00:00:27;;;;;;;15.90;8.73;;;-2.70;99.90;;;;;;4960972;28;20479;-81
2021/12/21 00:02:53;;;;;;;19.33;8.80;;;-2.70;99.90;;;;;;4973068;28;20034;-80
2021/12/21 00:05:21;;;;;;;17.43;9.70;;;-2.70;99.90;;;;;;4968738;28;20034;-80
2021/12/21 00:07:51;;;;;;;26.30;11.63;;;-2.70;99.90;;;;;;4969152;28;20464;-81
2021/12/21 00:10:19;;;;;;;36.17;13.33;;;-2.70;99.90;;;;;;4968330;28;20080;-80
2021/12/21 00:13:03;;;;;;;35.30;14.80;;;-2.80;99.90;;;;;;5033473;28;20041;-82
2021/12/21 00:18:20;;;;;;;38.73;16.10;;;-2.80;99.90;;;;;;4966514;28;20460;-80
2021/12/21 00:21:03;;;;;;;36.90;15.10;;;-2.90;99.90;;;;;;4961810;28;20031;-80
2021/12/21 00:23:42;;;;;;;36.27;15.57;;;-2.90;99.90;;;;;;4968980;28;20027;-80
2021/12/21 00:26:19;;;;;;;30.37;14.27;;;-3.00;99.90;;;;;;4965746;28;20482;-80
2021/12/21 00:28:54;;;;;;;29.97;13.70;;;-3.00;99.90;;;;;;4967970;28;20062;-80
2021/12/21 00:31:20;;;;;;;;;;;-3.00;99.90;;;;;;5035176;28;20059;-80
2021/12/21 00:33:47;;;;;;;32.57;12.50;;;-3.10;99.90;;;;;;4970054;28;19956;-80
2021/12/21 00:36:15;;;;;;;23.53;11.33;;;-3.10;99.90;;;;;;4969999;28;20456;-80
2021/12/21 00:38:40;;;;;;;28.30;12.47;;;-3.10;99.90;;;;;;4964887;28;20109;-80
2021/12/21 00:41:06;;;;;;;18.47;9.90;;;-3.20;99.90;;;;;;4961861;28;20055;-80
2021/12/21 00:43:32;;;;;;;18.83;9.53;;;-3.20;99.90;;;;;;4971272;28;20087;-80
2021/12/21 00:45:57;;;;;;;16.03;10.13;;;-3.20;99.90;;;;;;4973303;28;20084;-80
2021/12/21 00:48:28;;;;;;;18.23;9.70;;;-3.20;99.90;;;;;;4966498;28;20023;-80
2021/12/21 00:50:54;;;;;;;20.07;10.50;;;-3.20;99.90;;;;;;4973607;28;20027;-80
2021/12/21 00:53:20;;;;;;;23.80;10.47;;;-3.20;99.90;;;;;;5034797;28;20035;-80
2021/12/21 00:55:45;;;;;;;19.83;10.20;;;-3.20;99.90;;;;;;4962472;28;20392;-80
2021/12/21 00:58:12;;;;;;;20.10;10.37;;;-3.20;99.90;;;;;;4963910;28;20031;-80
2021/12/21 01:00:38;;;;;;;20.87;10.30;;;-3.30;99.90;;;;;;5033800;28;20029;-80
2021/12/21 01:03:09;;;;;;;21.17;9.70;;;-3.30;99.90;;;;;;4969228;28;20089;-80
2021/12/21 01:05:55;;;;;;;22.17;10.70;;;-3.30;99.90;;;;;;4966611;28;20431;-80
2021/12/21 01:08:25;;;;;;;;;;;-3.30;99.90;;;;;;4965344;28;20019;-80
2021/12/21 01:14:17;;;;;;;19.30;9.33;;;-3.30;99.90;;;;;;4972814;28;20092;-80
2021/12/21 01:16:16;;;;;;;16.97;9.10;;;-3.30;99.90;;;;;;4980151;28;20043;-80
2021/12/21 01:19:00;;;;;;;20.07;11.30;;;-3.30;99.90;;;;;;4961723;28;20031;-80
2021/12/21 01:21:30;;;;;;;24.87;11.17;;;-3.40;99.90;;;;;;4965142;28;20118;-80
2021/12/21 01:40:01;;;;;;;18.33;9.20;;;-3.40;99.90;;;;;;4989234;28;20073;-80
2021/12/21 01:50:39;;;;;;;17.00;9.03;;;-3.40;99.90;;;;;;4972652;28;20079;-80
2021/12/21 01:53:05;;;;;;;20.13;8.70;;;-3.50;99.90;;;;;;4965037;28;20476;-80
2021/12/21 01:55:30;;;;;;;19.80;8.80;;;-3.50;99.90;;;;;;4972645;28;20088;-80
2021/12/21 01:57:56;;;;;;;20.07;9.23;;;-3.50;99.90;;;;;;4966357;28;20033;-80
2021/12/21 02:00:22;;;;;;;13.03;8.20;;;-3.50;99.90;;;;;;4980708;28;20043;-79
2021/12/21 02:02:48;;;;;;;20.10;8.90;;;-3.50;99.90;;;;;;4979293;28;20027;-79
2021/12/21 02:05:13;;;;;;;15.57;9.00;;;-3.50;99.90;;;;;;4976882;28;20038;-79
2021/12/21 02:07:39;;;;;;;13.53;7.40;;;-3.60;99.90;;;;;;4973191;28;20035;-79
2021/12/21 02:10:06;;;;;;;17.33;9.47;;;-3.50;99.90;;;;;;5041626;28;20041;-79
2021/12/21 02:12:32;;;;;;;21.40;8.80;;;-3.50;99.90;;;;;;4969690;28;20035;-80
2021/12/21 02:15:00;;;;;;;18.70;9.63;;;-3.60;99.90;;;;;;4975463;28;20083;-79
2021/12/21 02:18:04;;;;;;;22.20;10.93;;;-3.60;99.90;;;;;;4963927;28;20417;-79
2021/12/21 02:23:03;;;;;;;20.93;11.10;;;-3.60;99.90;;;;;;4975596;28;20487;-79
2021/12/21 02:30:49;;;;;;;21.37;9.60;;;-3.60;99.90;;;;;;4985563;28;20104;-79
2021/12/21 02:33:15;;;;;;;23.63;10.83;;;-3.70;99.90;;;;;;4974032;28;20032;-79
2021/12/21 02:35:41;;;;;;;21.20;10.03;;;-3.70;99.90;;;;;;4970343;28;20437;-79
2021/12/21 02:38:07;;;;;;;20.73;10.43;;;-3.70;99.90;;;;;;4962319;28;20030;-80
2021/12/21 02:40:34;;;;;;;20.77;10.43;;;-3.70;99.90;;;;;;4973675;28;20026;-79
2021/12/21 02:43:00;;;;;;;20.17;9.93;;;-3.80;99.90;;;;;;4976616;28;20031;-79
2021/12/21 02:45:26;;;;;;;21.40;11.03;;;-3.80;99.90;;;;;;5053885;28;20034;-79
2021/12/21 02:47:51;;;;;;;17.03;10.17;;;-3.80;99.90;;;;;;4978144;28;20026;-79
2021/12/21 02:50:17;;;;;;;18.53;9.80;;;-3.80;99.90;;;;;;4983192;28;20035;-79
2021/12/21 02:52:43;;;;;;;14.87;8.57;;;-3.80;99.90;;;;;;4981600;28;20022;-80
2021/12/21 02:55:09;;;;;;;20.93;9.73;;;-3.80;99.90;;;;;;5057890;28;20071;-79
2021/12/21 02:57:35;;;;;;;18.23;9.43;;;-3.80;99.90;;;;;;4986095;28;20034;-80
2021/12/21 03:00:01;;;;;;;21.27;10.90;;;-3.90;99.90;;;;;;4973550;28;20427;-79
2021/12/21 03:02:28;;;;;;;12.33;8.33;;;-3.90;99.90;;;;;;5005955;28;20114;-79
2021/12/21 03:04:54;;;;;;;17.10;8.73;;;-3.90;99.90;;;;;;4969842;28;20028;-79
2021/12/21 03:10:01;;;;;;;18.13;8.80;;;-3.90;99.90;;;;;;4975525;28;20023;-79
2021/12/21 03:14:52;;;;;;;18.73;9.77;;;-4.00;99.90;;;;;;4966472;28;20023;-79
2021/12/21 03:17:19;;;;;;;16.57;8.73;;;-4.00;99.90;;;;;;4969749;28;20042;-79
2021/12/21 03:19:45;;;;;;;19.80;8.83;;;-4.10;99.90;;;;;;4966774;28;20421;-79
2021/12/21 03:22:11;;;;;;;18.67;9.07;;;-4.10;99.90;;;;;;4983933;28;20037;-79
2021/12/21 03:24:38;;;;;;;20.63;8.90;;;-4.10;99.90;;;;;;4971767;28;20050;-79
2021/12/21 03:27:05;;;;;;;20.90;10.67;;;-4.10;99.90;;;;;;4981654;28;20035;-79
2021/12/21 03:29:33;;;;;;;19.73;9.90;;;-4.10;99.90;;;;;;4982879;28;20035;-79
2021/12/21 03:32:01;;;;;;;21.63;10.23;;;-4.10;99.90;;;;;;4976912;28;20034;-79
2021/12/21 03:34:27;;;;;;;22.93;10.30;;;-4.10;99.90;;;;;;4981169;28;20094;-79
2021/12/21 03:36:52;;;;;;;25.13;11.13;;;-4.10;99.90;;;;;;4971079;28;20031;-79
2021/12/21 03:39:19;;;;;;;20.13;9.90;;;-4.10;99.90;;;;;;4980010;28;20061;-79
2021/12/21 03:41:48;;;;;;;26.77;11.00;;;-4.10;99.90;;;;;;4984282;28;20069;-79
2021/12/21 03:44:16;;;;;;;18.80;9.17;;;-4.10;99.90;;;;;;5053459;28;20039;-79
2021/12/21 03:46:48;;;;;;;22.83;9.77;;;-4.10;99.90;;;;;;4991343;28;20249;-79
2021/12/21 03:49:51;;;;;;;24.03;9.60;;;-4.10;99.90;;;;;;4982518;28;20029;-79
2021/12/21 03:52:31;;;;;;;21.40;9.43;;;-4.20;99.90;;;;;;4978371;28;20027;-79
2021/12/21 03:55:01;;;;;;;17.37;9.23;;;-4.20;99.90;;;;;;4989044;28;20144;-79
2021/12/21 03:57:27;;;;;;;21.23;9.90;;;-4.20;99.90;;;;;;4974754;28;20114;-79
2021/12/21 03:59:53;;;;;;;18.17;10.73;;;-4.20;99.90;;;;;;4973889;28;20035;-79
2021/12/21 04:02:20;;;;;;;22.37;11.03;;;-4.20;99.90;;;;;;4986805;28;20052;-79
2021/12/21 04:04:48;;;;;;;20.47;10.33;;;-4.20;99.90;;;;;;4977194;28;20030;-79
2021/12/21 04:07:14;;;;;;;20.57;10.43;;;-4.20;99.90;;;;;;5037732;28;20535;-79
2021/12/21 04:09:39;;;;;;;20.00;9.93;;;-4.20;99.90;;;;;;4972126;28;20065;-79
2021/12/21 04:12:05;;;;;;;16.93;9.93;;;-4.20;99.90;;;;;;4994467;28;20171;-79
2021/12/21 04:14:32;;;;;;;22.77;10.47;;;-4.20;99.90;;;;;;4981443;28;20038;-79
2021/12/21 04:16:58;;;;;;;20.17;9.43;;;-4.20;99.90;;;;;;4985150;28;20051;-79
2021/12/21 04:19:24;;;;;;;24.87;11.73;;;-4.20;99.90;;;;;;4971747;28;20084;-79
2021/12/21 04:21:50;;;;;;;18.60;9.57;;;-4.20;99.90;;;;;;4983560;28;20102;-79
2021/12/21 04:24:16;;;;;;;18.83;9.80;;;-4.20;99.90;;;;;;5005763;28;20049;-79
2021/12/21 04:26:41;;;;;;;16.93;9.43;;;-4.20;99.90;;;;;;4982299;28;20039;-79
2021/12/21 04:29:07;;;;;;;16.30;8.90;;;-4.20;99.90;;;;;;4992068;28;20038;-79
2021/12/21 04:31:33;;;;;;;18.93;9.47;;;-4.20;99.90;;;;;;4971053;28;20110;-79
2021/12/21 04:33:59;;;;;;;19.77;9.87;;;-4.20;99.90;;;;;;5002652;28;20039;-79
2021/12/21 04:36:25;;;;;;;19.10;9.83;;;-4.30;99.90;;;;;;4992719;28;20054;-79
2021/12/21 04:38:52;;;;;;;22.17;9.20;;;-4.20;99.90;;;;;;4987792;28;20026;-79
2021/12/21 04:41:23;;;;;;;19.70;9.80;;;-4.30;99.90;;;;;;5016531;28;20019;-79
2021/12/21 04:43:54;;;;;;;16.87;9.40;;;-4.30;99.90;;;;;;4980030;28;20117;-79
2021/12/21 04:46:20;;;;;;;19.60;10.97;;;-4.30;99.90;;;;;;4990122;28;20059;-79
2021/12/21 04:48:46;;;;;;;24.07;9.90;;;-4.30;99.90;;;;;;4977179;28;20046;-79
2021/12/21 04:51:12;;;;;;;19.47;8.73;;;-4.30;99.90;;;;;;4995070;28;20035;-79
2021/12/21 04:53:37;;;;;;;18.63;9.00;;;-4.30;99.90;;;;;;4985773;28;20028;-80
2021/12/21 04:56:04;;;;;;;19.10;9.67;;;-4.30;99.90;;;;;;5047604;28;20118;-79
2021/12/21 04:58:29;;;;;;;17.03;10.17;;;-4.30;99.90;;;;;;5055932;28;20023;-80
2021/12/21 05:00:55;;;;;;;17.90;10.43;;;-4.30;99.90;;;;;;4991918;28;20395;-79
2021/12/21 05:03:21;;;;;;;21.80;11.50;;;-4.30;99.90;;;;;;4995434;28;20045;-79
2021/12/21 05:05:47;;;;;;;22.83;11.87;;;-4.30;99.90;;;;;;4981729;28;20035;-79
2021/12/21 05:08:21;;;;;;;22.93;13.93;;;-4.30;99.90;;;;;;4980798;28;20026;-80
2021/12/21 05:13:14;;;;;;;20.30;10.73;;;-4.30;99.90;;;;;;4961223;28;20528;-80
2021/12/21 05:15:39;;;;;;;24.57;10.80;;;-4.30;99.90;;;;;;4969828;28;20061;-80
2021/12/21 05:18:05;;;;;;;18.03;9.93;;;-4.30;99.90;;;;;;4964942;28;20045;-79
2021/12/21 05:20:31;;;;;;;20.13;10.70;;;-4.30;99.90;;;;;;4968412;28;20490;-80
2021/12/21 05:22:56;;;;;;;24.37;10.83;;;-4.30;99.90;;;;;;5026478;28;20042;-79
2021/12/21 05:25:22;;;;;;;18.03;10.60;;;-4.30;99.90;;;;;;4967558;28;20137;-79
2021/12/21 05:27:47;;;;;;;17.60;11.40;;;-4.30;99.90;;;;;;4962569;28;20034;-80
2021/12/21 05:30:14;;;;;;;22.77;11.07;;;-4.30;99.90;;;;;;5026387;28;20027;-80
2021/12/21 05:32:40;;;;;;;21.97;10.93;;;-4.30;99.90;;;;;;4960266;28;20114;-79
2021/12/21 05:35:06;;;;;;;20.10;10.70;;;-4.40;99.90;;;;;;4962314;28;20182;-80
2021/12/21 05:37:32;;;;;;;16.73;10.13;;;-4.40;99.90;;;;;;4960683;28;20098;-80
2021/12/21 05:40:09;;;;;;;18.87;10.03;;;-4.40;99.90;;;;;;4960731;28;20546;-79
2021/12/21 05:42:35;;;;;;;21.60;11.17;;;-4.50;99.90;;;;;;4962400;28;20031;-80
2021/12/21 05:45:03;;;;;;;22.17;11.67;;;-4.50;99.90;;;;;;4962444;28;20068;-79
2021/12/21 05:47:29;;;;;;;22.50;10.47;;;-4.60;99.90;;;;;;4960582;28;20599;-79
2021/12/21 05:49:54;;;;;;;25.57;12.97;;;-4.60;99.90;;;;;;4965545;28;20027;-80
2021/12/21 05:52:20;;;;;;;20.73;11.73;;;-4.60;99.90;;;;;;4975986;28;20049;-80
2021/12/21 05:54:46;;;;;;;25.20;10.87;;;-4.60;99.90;;;;;;5032969;28;20432;-80
2021/12/21 05:57:11;;;;;;;17.27;10.70;;;-4.60;99.90;;;;;;4965423;28;20028;-80
2021/12/21 05:59:37;;;;;;;23.70;10.50;;;-4.60;99.90;;;;;;4967941;28;20457;-80
2021/12/21 06:02:03;;;;;;;20.17;10.80;;;-4.70;99.90;;;;;;4973879;28;20513;-80
2021/12/21 06:04:29;;;;;;;22.10;10.60;;;-4.70;99.90;;;;;;4973075;28;20035;-80
2021/12/21 06:06:55;;;;;;;20.73;11.13;;;-4.70;99.90;;;;;;5002046;28;20040;-80
2021/12/21 06:09:20;;;;;;;20.03;11.23;;;-4.70;99.90;;;;;;4972491;28;20031;-80
2021/12/21 06:12:02;;;;;;;23.90;10.53;;;-4.70;99.90;;;;;;4957504;28;20110;-80
2021/12/21 06:22:58;;;;;;;17.67;7.00;;;-4.80;99.90;;;;;;4956616;28;20514;-79
2021/12/21 06:25:36;;;;;;;20.37;10.47;;;-4.80;99.90;;;;;;4959954;28;20258;-79
2021/12/21 06:28:07;;;;;;;20.23;12.63;;;-4.90;99.90;;;;;;4956963;28;20049;-79
2021/12/21 06:30:34;;;;;;;25.73;11.17;;;-4.90;99.90;;;;;;4958626;28;20368;-79
2021/12/21 06:33:00;;;;;;;25.43;11.77;;;-4.90;99.90;;;;;;4958036;28;20039;-79
2021/12/21 06:35:26;;;;;;;25.23;12.80;;;-4.90;99.90;;;;;;4961884;28;20368;-79
2021/12/21 06:37:51;;;;;;;24.27;11.60;;;-4.90;99.90;;;;;;4957592;28;20034;-79
2021/12/21 06:40:18;;;;;;;23.60;12.03;;;-4.80;99.90;;;;;;4958838;28;20045;-79
2021/12/21 06:42:46;;;;;;;23.20;12.97;;;-4.80;99.90;;;;;;4959327;28;20055;-79
2021/12/21 06:45:24;;;;;;;24.50;13.27;;;-4.70;99.90;;;;;;4958683;28;20061;-79
2021/12/21 06:53:19;;;;;;;23.90;11.57;;;-4.60;99.90;;;;;;4964148;28;20037;-83
2021/12/21 06:55:44;;;;;;;29.70;12.27;;;-4.50;99.90;;;;;;5024076;28;20039;-83
2021/12/21 06:58:10;;;;;;;18.43;10.77;;;-4.50;99.90;;;;;;4967572;28;20123;-84
2021/12/21 07:00:36;;;;;;;21.90;9.90;;;-4.50;99.90;;;;;;4959307;28;20031;-84
2021/12/21 07:03:01;;;;;;;20.63;10.43;;;-4.30;99.90;;;;;;4956537;28;20122;-84
2021/12/21 07:05:28;;;;;;;19.90;10.40;;;-4.30;99.90;;;;;;4961409;28;20050;-84
2021/12/21 07:07:53;;;;;;;26.57;12.17;;;-4.30;99.90;;;;;;4956792;28;20475;-84
2021/12/21 07:10:24;;;;;;;19.93;10.13;;;-4.20;99.90;;;;;;5024299;28;20046;-84
2021/12/21 07:18:10;;;;;;;22.10;10.43;;;-4.00;99.90;;;;;;4965315;28;20097;-83
2021/12/21 07:20:36;;;;;;;21.23;9.17;;;-4.00;99.90;;;;;;4969817;28;20043;-82
2021/12/21 07:23:03;;;;;;;19.67;10.20;;;-3.90;99.90;;;;;;4959999;28;20113;-82
2021/12/21 07:25:29;;;;;;;14.53;8.90;;;-3.90;99.90;;;;;;4968602;28;20029;-82
2021/12/21 07:27:55;;;;;;;23.33;8.73;;;-3.90;99.90;;;;;;5025861;28;20035;-83
2021/12/21 07:30:20;;;;;;;17.27;9.70;;;-3.90;99.90;;;;;;4960689;28;20026;-83
2021/12/21 07:32:46;;;;;;;18.70;8.63;;;-3.90;99.90;;;;;;4959065;28;20347;-79
2021/12/21 07:35:12;;;;;;;19.20;9.87;;;-3.90;99.90;;;;;;5023959;28;20577;-79
2021/12/21 07:37:38;;;;;;;19.77;9.43;;;-3.80;99.90;;;;;;4960941;28;20058;-82
2021/12/21 07:40:04;;;;;;;19.87;8.07;;;-3.70;99.90;;;;;;4967066;28;20031;-82
2021/12/21 07:42:30;;;;;;;18.33;8.57;;;-3.80;99.90;;;;;;5030347;28;20074;-82
2021/12/21 07:44:56;;;;;;;19.70;10.23;;;-3.80;99.90;;;;;;4966964;28;20471;-82
2021/12/21 07:47:21;;;;;;;20.63;8.67;;;-3.70;99.90;;;;;;4963834;28;20047;-82
2021/12/21 07:49:47;;;;;;;24.37;10.23;;;-3.70;99.90;;;;;;4960739;28;20859;-82
2021/12/21 07:52:14;;;;;;;20.20;11.83;;;-3.70;99.90;;;;;;4966208;28;20387;-82
2021/12/21 07:54:39;;;;;;;25.47;14.57;;;-3.70;99.90;;;;;;4972994;28;20046;-81
2021/12/21 07:57:09;;;;;;;21.87;10.20;;;-3.70;99.90;;;;;;4969183;28;20480;-81
2021/12/21 07:59:39;;;;;;;19.90;9.57;;;-3.50;99.90;;;;;;4960982;28;20046;-83
2021/12/21 08:02:05;;;;;;;19.83;10.63;;;-3.50;99.90;;;;;;5022683;28;20057;-83
2021/12/21 08:04:36;;;;;;;21.27;10.57;;;-3.40;99.90;;;;;;4955850;28;20042;-85
2021/12/21 08:07:09;;;;;;;18.70;8.33;;;-3.30;99.90;;;;;;4954897;28;20035;-77
2021/12/21 08:09:40;;;;;;;20.40;8.57;;;-3.20;99.90;;;;;;4951454;28;20029;-78
2021/12/21 08:12:14;;;;;;;19.13;9.57;;;-3.20;99.90;;;;;;4966622;28;20112;-78
2021/12/21 08:14:44;;;;;;;19.13;10.07;;;-3.10;99.90;;;;;;4966760;28;20057;-81
2021/12/21 08:17:11;;;;;;;17.97;10.27;;;-3.20;99.90;;;;;;4974628;28;20080;-81
2021/12/21 08:19:37;;;;;;;20.90;10.03;;;-3.30;99.90;;;;;;5039210;28;20039;-81
2021/12/21 08:22:03;;;;;;;20.33;11.63;;;-3.30;99.90;;;;;;4977263;28;20024;-82
2021/12/21 08:24:29;;;;;;;20.13;11.20;;;-3.30;99.90;;;;;;4974880;28;20054;-83
2021/12/21 08:26:56;;;;;;;16.83;10.90;;;-3.30;99.90;;;;;;4962797;28;20038;-83
2021/12/21 08:29:22;;;;;;;18.80;11.03;;;-3.20;99.90;;;;;;4971300;28;20095;-83
2021/12/21 08:31:48;;;;;;;17.70;10.50;;;-3.20;99.90;;;;;;5025847;28;20165;-83
2021/12/21 08:34:15;;;;;;;18.13;10.73;;;-3.20;99.90;;;;;;5025590;28;20059;-83
2021/12/21 08:36:43;;;;;;;23.77;11.77;;;-3.00;99.90;;;;;;4961074;28;20185;-83
2021/12/21 08:39:09;;;;;;;21.77;11.70;;;-3.00;99.90;;;;;;4959510;28;20038;-83
2021/12/21 08:41:41;;;;;;;24.67;11.77;;;-2.90;99.90;;;;;;4964060;28;20027;-83
2021/12/21 08:44:09;;;;;;;23.80;10.77;;;-2.80;99.90;;;;;;4971807;28;20058;-78
2021/12/21 08:46:35;;;;;;;21.53;11.53;;;-2.70;99.90;;;;;;4960969;28;20034;-82
2021/12/21 08:49:00;;;;;;;30.87;16.13;;;-2.70;99.90;;;;;;4959040;28;20027;-78
2021/12/21 08:51:26;;;;;;;24.63;12.93;;;-2.70;99.90;;;;;;4960095;28;20027;-78
2021/12/21 08:53:51;;;;;;;17.17;11.53;;;-2.60;99.90;;;;;;4970218;28;20030;-78
2021/12/21 08:56:17;;;;;;;23.07;10.57;;;-2.60;99.90;;;;;;4960358;28;20742;-78
2021/12/21 08:58:43;;;;;;;18.97;10.70;;;-2.60;99.90;;;;;;4958191;28;20463;-82
2021/12/21 09:01:08;;;;;;;28.87;12.53;;;-2.60;99.90;;;;;;4976291;28;20114;-78
2021/12/21 09:03:34;;;;;;;23.10;12.97;;;-2.60;99.90;;;;;;4962077;28;20043;-78
2021/12/21 09:06:00;;;;;;;23.90;12.00;;;-2.60;99.90;;;;;;4957222;28;20038;-78
2021/12/21 09:08:26;;;;;;;27.23;13.70;;;-2.60;99.90;;;;;;4963369;28;20463;-78
2021/12/21 09:10:52;;;;;;;22.93;13.20;;;-2.50;99.90;;;;;;4958929;28;20084;-78
2021/12/21 09:13:18;;;;;;;24.73;15.27;;;-2.40;99.90;;;;;;4959157;28;20194;-77
2021/12/21 09:15:44;;;;;;;28.97;15.33;;;-2.40;99.90;;;;;;4957070;28;20066;-78
2021/12/21 09:18:12;;;;;;;22.50;12.67;;;-2.40;99.90;;;;;;4957857;28;20050;-78
2021/12/21 09:20:38;;;;;;;25.83;13.10;;;-2.30;99.90;;;;;;4960696;28;20732;-78
2021/12/21 09:23:04;;;;;;;23.03;12.67;;;-2.30;99.90;;;;;;4955779;28;20039;-78
2021/12/21 09:25:30;;;;;;;20.87;12.87;;;-2.20;99.90;;;;;;4967751;28;20073;-78
2021/12/21 09:27:56;;;;;;;25.20;12.37;;;-2.00;99.90;;;;;;4960190;28;20055;-78
2021/12/21 09:30:23;;;;;;;22.00;12.63;;;-1.70;99.90;;;;;;5021844;28;20035;-78
2021/12/21 09:32:51;;;;;;;21.67;12.03;;;-1.40;99.90;;;;;;4959737;28;20028;-78
2021/12/21 09:35:17;;;;;;;18.57;12.00;;;-1.20;99.90;;;;;;4956464;28;20095;-78
2021/12/21 09:37:43;;;;;;;21.40;12.40;;;-1.20;99.90;;;;;;4963812;28;20031;-84
2021/12/21 09:40:13;;;;;;;26.43;12.57;;;-1.10;99.90;;;;;;4960941;28;20046;-83
2021/12/21 09:42:39;;;;;;;20.53;11.97;;;-1.10;99.90;;;;;;4961641;28;20035;-83
2021/12/21 09:45:05;;;;;;;21.43;13.13;;;-1.00;99.90;;;;;;4961102;28;20042;-82
2021/12/21 09:47:32;;;;;;;22.37;14.37;;;-1.00;99.90;;;;;;4975429;28;20101;-81
2021/12/21 09:49:58;;;;;;;23.20;14.30;;;-1.00;99.90;;;;;;5035879;28;20367;-81
2021/12/21 09:52:30;;;;;;;25.73;15.10;;;-1.00;99.90;;;;;;4965720;28;20028;-82
2021/12/21 09:54:58;;;;;;;21.43;14.07;;;-1.00;99.90;;;;;;4969402;28;20088;-82
2021/12/21 09:57:23;;;;;;;29.50;16.40;;;-0.90;99.90;;;;;;5043898;28;20401;-82
2021/12/21 09:59:49;;;;;;;25.83;15.93;;;-1.00;99.90;;;;;;4968965;28;20035;-81
2021/12/21 10:02:19;;;;;;;27.23;15.33;;;-1.00;99.90;;;;;;4967416;28;20033;-82
2021/12/21 10:04:51;;;;;;;20.60;13.03;;;-1.10;99.90;;;;;;4967854;28;20529;-82
2021/12/21 10:07:18;;;;;;;23.30;15.00;;;-1.10;99.90;;;;;;5052619;28;20512;-81
2021/12/21 10:09:47;;;;;;;26.47;14.40;;;-1.20;99.90;;;;;;4966532;28;20098;-81
2021/12/21 10:12:29;;;;;;;23.90;15.27;;;-1.30;99.90;;;;;;4965995;28;20483;-80
2021/12/21 10:15:04;;;;;;;30.63;16.63;;;-1.40;99.90;;;;;;4957090;28;20027;-80
2021/12/21 10:17:32;;;;;;;28.10;14.75;;;-1.50;99.90;;;;;;4963767;28;20456;-78
2021/12/21 10:20:00;;;;;;;26.03;15.33;;;-1.30;99.90;;;;;;5025911;28;20039;-82
2021/12/21 10:22:25;;;;;;;27.53;14.73;;;-1.30;99.90;;;;;;5020759;28;20491;-83
2021/12/21 10:24:55;;;;;;;21.83;14.33;;;-1.20;99.90;;;;;;4956930;28;20046;-83
2021/12/21 10:27:24;;;;;;;24.70;14.30;;;-1.20;99.90;;;;;;4955612;28;20723;-83
2021/12/21 10:29:56;;;;;;;21.27;13.60;;;-1.20;99.90;;;;;;4958299;28;20026;-83
2021/12/21 10:32:28;;;;;;;28.80;15.63;;;-1.10;99.90;;;;;;4958483;28;20039;-83
2021/12/21 10:34:57;;;;;;;28.13;16.33;;;-1.10;99.90;;;;;;4958444;28;20043;-78
2021/12/21 10:37:32;;;;;;;29.80;17.50;;;-1.10;99.90;;;;;;4955070;28;20088;-78
2021/12/21 10:40:10;;;;;;;27.30;17.10;;;-1.20;99.90;;;;;;4957848;28;20325;-78
2021/12/21 10:42:55;;;;;;;42.47;34.03;;;-1.00;99.90;;;;;;4956108;28;20045;-78
2021/12/21 10:45:41;;;;;;;24.60;14.47;;;-1.10;99.90;;;;;;4960741;28;20605;-78
2021/12/21 10:48:15;;;;;;;25.67;15.47;;;-0.90;99.90;;;;;;5023819;28;20031;-78
2021/12/21 10:50:47;;;;;;;23.70;16.00;;;-0.80;99.90;;;;;;4962795;28;20467;-82
2021/12/21 10:53:23;;;;;;;26.43;15.30;;;-0.80;99.90;;;;;;4964464;28;20093;-82
2021/12/21 10:56:05;;;;;;;26.40;16.17;;;-0.70;99.90;;;;;;4975968;28;20027;-82
2021/12/21 10:58:31;;;;;;;33.00;17.27;;;-0.80;99.90;;;;;;4972930;28;20382;-82
2021/12/21 11:01:04;;;;;;;26.10;15.17;;;-0.80;99.90;;;;;;4971964;28;20027;-82
2021/12/21 11:03:35;;;;;;;29.50;16.10;;;-0.70;99.90;;;;;;4959929;28;20034;-82
2021/12/21 11:06:13;;;;;;;27.37;16.20;;;-0.70;99.90;;;;;;4961482;28;20038;-78
2021/12/21 11:08:41;;;;;;;29.70;15.87;;;-0.50;99.90;;;;;;4958079;28;20070;-78
2021/12/21 11:11:10;;;;;;;26.57;15.40;;;-0.40;99.90;;;;;;4957424;28;20027;-78
2021/12/21 11:13:37;;;;;;;25.63;15.67;;;-0.40;99.90;;;;;;5025208;28;20025;-79
2021/12/21 11:16:07;;;;;;;25.57;15.73;;;-0.40;99.90;;;;;;4957854;28;20514;-79
2021/12/21 11:18:37;;;;;;;34.63;17.87;;;-0.50;99.90;;;;;;4969949;28;20087;-79
2021/12/21 11:21:05;;;;;;;27.40;14.50;;;-0.50;99.90;;;;;;4970789;28;20026;-79
2021/12/21 11:23:33;;;;;;;25.00;13.93;;;-0.50;99.90;;;;;;5023979;28;20027;-79
2021/12/21 11:26:00;;;;;;;24.37;13.87;;;-0.40;99.90;;;;;;4955961;28;20516;-80
2021/12/21 11:28:29;;;;;;;24.80;15.47;;;-0.30;99.90;;;;;;4953572;28;20023;-80
2021/12/21 11:30:59;;;;;;;26.03;16.10;;;-0.30;99.90;;;;;;4956497;28;20035;-80
2021/12/21 11:33:26;;;;;;;27.87;17.10;;;-0.30;99.90;;;;;;4955782;28;20023;-80
2021/12/21 11:38:38;;;;;;;30.53;16.83;;;-0.10;99.90;;;;;;4955079;28;20054;-84
2021/12/21 11:41:04;;;;;;;24.97;16.43;;;-0.10;99.90;;;;;;4954586;28;20047;-84
2021/12/21 11:43:36;;;;;;;25.40;15.13;;;-0.10;99.90;;;;;;4954378;28;20046;-84
2021/12/21 11:46:14;;;;;;;25.20;15.67;;;-0.10;99.90;;;;;;4957224;28;20133;-84
2021/12/21 11:49:09;;;;;;;25.57;14.17;;;0.20;99.90;;;;;;4955805;28;20031;-84
2021/12/21 11:51:34;;;;;;;27.97;16.53;;;0.20;99.90;;;;;;4957043;28;20033;-84
2021/12/21 11:54:00;;;;;;;30.13;15.93;;;0.10;99.90;;;;;;4956703;28;20023;-85
2021/12/21 11:56:27;;;;;;;29.47;16.23;;;0.10;99.90;;;;;;4954095;28;20046;-80
2021/12/21 11:58:56;;;;;;;26.63;16.20;;;0.20;99.90;;;;;;4955296;28;20034;-80
2021/12/21 12:01:28;;;;;;;30.67;16.40;;;0.10;99.90;;;;;;4967792;28;20050;-81
2021/12/21 12:04:25;;;;;;;30.37;15.10;;;0.00;99.90;;;;;;4957838;28;20472;-81
2021/12/21 12:06:53;;;;;;;27.13;15.50;;;0.10;99.90;;;;;;4961422;28;20050;-81
2021/12/21 12:09:27;;;;;;;29.60;16.40;;;0.10;99.90;;;;;;4958996;28;20027;-81
2021/12/21 12:12:07;;;;;;;27.90;15.47;;;0.20;99.90;;;;;;4973338;28;20024;-81
2021/12/21 12:14:35;;;;;;;28.00;16.00;;;0.20;99.90;;;;;;4959307;28;20095;-81
2021/12/21 12:17:17;;;;;;;28.00;16.37;;;0.00;99.90;;;;;;4977065;28;20158;-81
2021/12/21 12:19:53;;;;;;;25.13;15.50;;;0.10;99.90;;;;;;4961445;28;20222;-81
2021/12/21 12:22:24;;;;;;;31.23;16.25;;;0.30;99.90;;;;;;4973742;28;20031;-80
2021/12/21 12:24:58;;;;;;;27.90;15.93;;;0.30;99.90;;;;;;5029228;28;20924;-81
2021/12/21 12:27:29;;;;;;;25.50;16.03;;;0.50;99.90;;;;;;5026707;28;20023;-80
2021/12/21 12:30:09;;;;;;;28.13;17.00;;;0.50;99.90;;;;;;5023453;28;20460;-80
2021/12/21 12:32:43;;;;;;;27.13;15.47;;;0.40;99.90;;;;;;4958196;28;20065;-80
2021/12/21 12:35:14;;;;;;;24.20;14.93;;;0.50;99.90;;;;;;4959609;28;20377;-80
2021/12/21 12:37:52;;;;;;;24.83;15.13;;;0.40;99.90;;;;;;4957839;28;20852;-80
2021/12/21 12:40:20;;;;;;;26.93;15.20;;;0.50;99.90;;;;;;5034101;28;20447;-80
2021/12/21 12:43:05;;;;;;;24.03;14.90;;;0.60;99.90;;;;;;5026703;28;20437;-79
2021/12/21 12:45:49;;;;;;;28.57;15.83;;;0.70;99.90;;;;;;4958283;28;20027;-79
2021/12/21 12:48:30;;;;;;;23.33;14.90;;;0.60;99.90;;;;;;4964263;28;20054;-80
2021/12/21 12:50:57;;;;;;;28.10;15.73;;;0.50;99.90;;;;;;4970137;28;20029;-80
2021/12/21 12:53:44;;;;;;;27.93;15.57;;;0.40;99.90;;;;;;5026252;28;20027;-80
2021/12/21 12:56:14;;;;;;;28.00;14.93;;;0.40;99.90;;;;;;4971516;28;20371;-80
2021/12/21 12:58:54;;;;;;;23.47;14.87;;;0.40;99.90;;;;;;4957852;28;20031;-80
2021/12/21 13:01:24;;;;;;;31.30;16.77;;;0.40;99.90;;;;;;4966368;28;20032;-80
2021/12/21 13:03:52;;;;;;;36.00;18.93;;;0.50;99.90;;;;;;4965599;28;20023;-80
2021/12/21 13:06:22;;;;;;;31.40;18.63;;;0.50;99.90;;;;;;4957796;28;20122;-81
2021/12/21 13:08:48;;;;;;;29.37;16.90;;;0.50;99.90;;;;;;4963025;28;20161;-80
2021/12/21 13:11:22;;;;;;;29.33;17.63;;;0.60;99.90;;;;;;5030350;28;20027;-81
2021/12/21 13:13:49;;;;;;;30.73;18.37;;;0.60;99.90;;;;;;4969832;28;20412;-81
2021/12/21 13:16:20;;;;;;;32.30;18.70;;;0.40;99.90;;;;;;4962454;28;20055;-81
2021/12/21 13:18:52;;;;;;;31.83;18.83;;;0.40;99.90;;;;;;4959013;28;20070;-81
2021/12/21 13:21:20;;;;;;;33.53;19.40;;;0.20;99.90;;;;;;5025519;28;20436;-81
2021/12/21 13:23:50;;;;;;;27.30;17.50;;;0.20;99.90;;;;;;4957487;28;20031;-80
2021/12/21 13:26:16;;;;;;;30.87;17.60;;;0.10;99.90;;;;;;5025348;28;20039;-81
2021/12/21 13:28:49;;;;;;;29.07;17.40;;;0.00;99.90;;;;;;4961570;28;20027;-81
2021/12/21 13:31:17;;;;;;;27.30;16.87;;;0.00;99.90;;;;;;4960428;28;20036;-81
2021/12/21 13:33:43;;;;;;;30.00;17.83;;;0.00;99.90;;;;;;4958808;28;20035;-81
2021/12/21 13:36:11;;;;;;;28.87;16.47;;;-0.20;99.90;;;;;;4962555;28;20100;-81
2021/12/21 13:38:37;;;;;;;27.17;17.43;;;-0.10;99.90;;;;;;4971368;28;20387;-81
2021/12/21 13:41:15;;;;;;;28.43;18.73;;;-0.20;99.90;;;;;;4963910;28;20026;-81
2021/12/21 13:43:59;;;;;;;27.07;17.03;;;-0.20;99.90;;;;;;4961635;28;20036;-80
2021/12/21 13:46:32;;;;;;;27.33;16.33;;;-0.20;99.90;;;;;;4959851;28;20035;-80